Huvudsida
METAR-TAF:

METAR-TAF

Flygplatser :

Hyderabad Old Airport

Hyderabad, Indien

latitud: 17-27N, longitud: 078-28E, höjd: 530 m

Aktuellt väderrapport

Denna rapport gjordes för 26 minuter sedan, klockan 12:30 UTC
Vind 4 kt från syd/sydost
Temperatur 37°C
Fuktighet 17%
Tryck 1008 hPa
Sikt: 6000 m

METAR: VOHY 241230Z 16004KT 6000 NSC 37/08 Q1008 NOSIG

Tid: 18:26 (12:56 UTC)

Väderprognos

Denna rapport gjordes för 1 timme och 56 minuter sedan, klockan 11:00 UTC
Prognos gäller från 24 kl. 12 UTC till 24 kl. 21 UTC
Vind 10 kt från syd
Sikt: 6000 m
Spridda moln på en höjd av 1500 ft
Blir
från 24 kl. 18 UTC till 24 kl. 20 UTC
Vind 6 kt från ost
Sikt: 5000 m
Få moln på en höjd av 2000 ft
torrdis,

TAF: VOHY 241100Z 2412/2421 17010KT 6000 SCT015 BECMG 2418/2420 10006KT 5000 HZ FEW020

Aktuella väderrapporter och prognoser från 4000 flygplatser (METAR- och TAF-rapporter).

De tillgängliga stationerna syns som gula och röda prickar på kartan.

För musen över prickarna för att se namnen på stationerna.

Klicka sedan för att få väderrapporter och prognoser.

För att ändra kartan: Klicka på de gröna knapparna med ett svart kors på för att zooma in; den gröna knappen med ett streck på för att zooma ut; eller på de gröna pilarna för angränsande kartor.


METAR-TAF: